WetterOnline ( https://www.wetteronline.de )

Wetter aktuell Kempten

Aktuelles Wetter: Kempten (705m)

6-stündlich | Neueste Meldungen
Ortszeit Temperatur Wetter
Mo, 24.06. 8:00 17.0° C wolkenlos
Mo, 24.06. 2:00 15.0° C bewölkt
So, 23.06. 20:00 18.8° C wolkig
So, 23.06. 14:00 16.2° C bedeckt
So, 23.06. 8:00 11.0° C bedeckt
So, 23.06. 2:00 10.2° C leichter Regen
Sa, 22.06. 20:00 11.4° C Regen
Sa, 22.06. 14:00 21.0° C wolkig
Ortszeit Temperatur Wetter
Mo, 24.06. 12:00 22.5° C fast wolkenlos
Mo, 24.06. 11:40 21.1° C leicht bewölkt
Mo, 24.06. 11:30 20.9° C wolkenlos
Mo, 24.06. 11:20 20.9° C wolkenlos
Mo, 24.06. 11:10 21.6° C fast wolkenlos
Mo, 24.06. 11:00 20.8° C fast wolkenlos
Mo, 24.06. 10:50 20.8° C fast wolkenlos
Mo, 24.06. 10:30 20.5° C leicht bewölkt
Mo, 24.06. 10:00 20.1° C leicht bewölkt
Mo, 24.06. 9:30 19.2° C fast wolkenlos
Mo, 24.06. 9:00 18.5° C wolkenlos
Ortszeit Relative Feuchte Sichtweite
Mo, 24.06. 8:00 79% 30 km
Mo, 24.06. 2:00 88% 40 km
So, 23.06. 20:00 63% 60 km
So, 23.06. 14:00 74% 60 km
So, 23.06. 8:00 93% 17 km
So, 23.06. 2:00 97% 25 km
Sa, 22.06. 20:00 95% 5.0 km
Sa, 22.06. 14:00 51% >70 km
Ortszeit Relative Feuchte Sichtweite
Mo, 24.06. 12:00 59% 40 km
Mo, 24.06. 11:40 59% -
Mo, 24.06. 11:30 64% 45 km
Mo, 24.06. 11:20 64% -
Mo, 24.06. 11:10 63% -
Mo, 24.06. 11:00 64% 50 km
Mo, 24.06. 10:50 64% -
Mo, 24.06. 10:30 65% 55 km
Mo, 24.06. 10:00 66% 60 km
Mo, 24.06. 9:30 67% 45 km
Mo, 24.06. 9:00 73% 55 km
Ortszeit Niederschlagsmenge Niederschlagsart
Mo, 24.06. 8:00 0.0 l/m2 in 12 Std. -
Mo, 24.06. 2:00 0.0 l/m2 in 6 Std. -
So, 23.06. 20:00 0.0 l/m2 in 12 Std. -
So, 23.06. 14:00 0.0 l/m2 in 6 Std. -
So, 23.06. 8:00 11 l/m2 in 12 Std. Regen
So, 23.06. 2:00 11 l/m2 in 6 Std. Regen
Sa, 22.06. 20:00 14 l/m2 in 12 Std. Regen
Sa, 22.06. 14:00 0.0 l/m2 in 6 Std. -
Ortszeit Niederschlagsmenge Niederschlagsart
Mo, 24.06. 12:00 0.0 l/m2 in 1 Std. -
Mo, 24.06. 11:40 keine Meldung -
Mo, 24.06. 11:30 0.0 l/m2 in 30 Min -
Mo, 24.06. 11:20 keine Meldung -
Mo, 24.06. 11:10 keine Meldung -
Mo, 24.06. 11:00 0.0 l/m2 in 1 Std. -
Mo, 24.06. 10:50 keine Meldung -
Mo, 24.06. 10:30 0.0 l/m2 in 30 Min -
Mo, 24.06. 10:00 0.0 l/m2 in 1 Std. -
Mo, 24.06. 9:30 0.0 l/m2 in 30 Min -
Mo, 24.06. 9:00 0.0 l/m2 in 1 Std. -
Ortszeit Stärke Spitze Richtung
km/h Bft. km/h Grad Sektor
Mo, 24.06. 8:00 4 1 14 30° NO
Mo, 24.06. 2:00 4 1 14 20° N
So, 23.06. 20:00 7 2 25 40° NO
So, 23.06. 14:00 7 2 18 60° NO
So, 23.06. 8:00 4 1 11 290° W
So, 23.06. 2:00 0 0 32 - -
Sa, 22.06. 20:00 11 2 32 220° SW
Sa, 22.06. 14:00 9 2 20 320° NW
Ortszeit Stärke Spitze Richtung
km/h Bft. km/h Grad Sektor
Mo, 24.06. 12:00 11 2 35 70° O
Mo, 24.06. 11:40 14 3 - 80° O
Mo, 24.06. 11:30 14 3 32 60° NO
Mo, 24.06. 11:20 14 3 - 60° NO
Mo, 24.06. 11:10 13 3 - 50° NO
Mo, 24.06. 11:00 15 3 31 80° O
Mo, 24.06. 10:50 15 3 - 80° O
Mo, 24.06. 10:30 11 2 28 70° O
Mo, 24.06. 10:00 13 3 28 80° O
Mo, 24.06. 9:30 11 2 25 60° NO
Mo, 24.06. 9:00 9 2 19 70° O
Ortszeit Untergrenze Bedeckung Gattung
total tief tief mittel hoch
Mo, 24.06. 8:00 - 0/8 0/8 - - -
Mo, 24.06. 2:00 1500 m 7/8 7/8 - - -
So, 23.06. 20:00 990 m 6/8 6/8 - - -
So, 23.06. 14:00 480 m 8/8 8/8 - - -
So, 23.06. 8:00 630 m 8/8 8/8 - - -
So, 23.06. 2:00 1200 m 7/8 7/8 - - -
Sa, 22.06. 20:00 30 m 8/8 8/8 - - -
Sa, 22.06. 14:00 1380 m 7/8 1/8 - - -
Ortszeit Bedeckungsgrad in Achtel und Wolkenuntergrenze
Mo, 24.06. 12:00 1(1470m)
Mo, 24.06. 11:40 2
Mo, 24.06. 11:30 keine Wolken
Mo, 24.06. 11:20 keine Wolken
Mo, 24.06. 11:10 1
Mo, 24.06. 11:00 1(960m)
Mo, 24.06. 10:50 1(960m)
Mo, 24.06. 10:30 4(810m)
Mo, 24.06. 10:00 2(750m)
Mo, 24.06. 9:30 1(660m)
Mo, 24.06. 9:00 keine Wolken
Ortszeit Luftdruck NN (hPa) Tendenz (hPa in 3 Std.)
Mo, 24.06. 8:00 1017 - 0,3
Mo, 24.06. 2:00 1018 - 0,3
So, 23.06. 20:00 1016 + 0,2
So, 23.06. 14:00 1018 + 0,2
So, 23.06. 8:00 1019 + 1,0
So, 23.06. 2:00 1019 - 0,1
Sa, 22.06. 20:00 1018 + 2,3
Sa, 22.06. 14:00 1013 - 1,4
Ortszeit Luftdruck NN (hPa) Tendenz (hPa in 3 Std.)
Mo, 24.06. 12:00 1015 - 0,4
Mo, 24.06. 11:40 1015 keine Meldung
Mo, 24.06. 11:30 1015 - 0,4
Mo, 24.06. 11:20 1015 keine Meldung
Mo, 24.06. 11:10 1015 keine Meldung
Mo, 24.06. 11:00 1015 - 0,4
Mo, 24.06. 10:50 1015 keine Meldung
Mo, 24.06. 10:30 1015 - 0,3
Mo, 24.06. 10:00 1015 - 0,4
Mo, 24.06. 9:30 1016 - 0,3
Mo, 24.06. 9:00 1016 - 0,1
Ortszeit Schneehöhe (cm)
Mo, 24.06. 8:00 0
Mo, 24.06. 2:00 0
So, 23.06. 20:00 0
So, 23.06. 14:00 0
So, 23.06. 8:00 0
So, 23.06. 2:00 0
Sa, 22.06. 20:00 0
Sa, 22.06. 14:00 0
Ortszeit Schneehöhe (cm)
Mo, 24.06. 12:00 0
Mo, 24.06. 11:40 -
Mo, 24.06. 11:30 0
Mo, 24.06. 11:20 0
Mo, 24.06. 11:10 -
Mo, 24.06. 11:00 0
Mo, 24.06. 10:50 0
Mo, 24.06. 10:30 0
Mo, 24.06. 10:00 0
Mo, 24.06. 9:30 0
Mo, 24.06. 9:00 0
Link zu dieser Seite / Seite empfehlen

Das Wetter in ...